Observation data for Seminole on 06/21/2019      Previous  Date  Next       Current Mesonet Observations  Soil Data  Daily Summary Page  Observations in Plain Language
KSM1 210500Z 23009G14KT 28/M06 A2982 RMK A01 T02801061  RH  010%=      5-min Rain = 0
KSM1 210505Z 23008KT 28/M06 A2982 RMK A01 T02771061  RH  010%=      5-min Rain = 0
KSM1 210510Z 23009KT 28/M06 A2981 RMK A01 T02761061  RH  011%=      5-min Rain = 0
KSM1 210515Z 23009KT 28/M06 A2981 RMK A01 T02761061  RH  011%=      5-min Rain = 0
KSM1 210520Z 23008KT 27/M06 A2981 RMK A01 T02741061  RH  011%=      5-min Rain = 0
KSM1 210525Z 23008KT 27/M06 A2981 RMK A01 T02731060  RH  011%=      5-min Rain = 0
KSM1 210530Z 24008KT 27/M06 A2981 RMK A01 T02721061  RH  011%=      5-min Rain = 0
KSM1 210535Z 24009KT 27/M06 A2982 RMK A01 T02701060  RH  011%=      5-min Rain = 0
KSM1 210540Z 24010KT 27/M06 A2981 RMK A01 T02651061  RH  011%=      5-min Rain = 0
KSM1 210545Z 24011KT 27/M06 A2981 RMK A01 T02681064  RH  011%=      5-min Rain = 0
KSM1 210550Z 24012KT 27/M06 A2981 RMK A01 T02701063  RH  011%=      5-min Rain = 0
KSM1 210555Z 24011KT 27/M07 A2981 RMK A01 T02731066  RH  010%=      5-min Rain = 0
KSM1 210600Z 24011KT 28/M07 A2981 RMK A01 T02761066  RH  010%=      5-min Rain = 0
KSM1 210605Z 24011KT 28/M07 A2981 RMK A01 T02771067  RH  010%=      5-min Rain = 0
KSM1 210610Z 24011KT 28/M07 A2981 RMK A01 T02761066  RH  010%=      5-min Rain = 0
KSM1 210615Z 24010KT 27/M07 A2981 RMK A01 T02741065  RH  010%=      5-min Rain = 0
KSM1 210620Z 23009G15KT 27/M07 A2981 RMK A01 T02741066  RH  010%=      5-min Rain = 0
KSM1 210625Z 24011KT 27/M07 A2981 RMK A01 T02731066  RH  010%=      5-min Rain = 0
KSM1 210630Z 24012KT 27/M07 A2981 RMK A01 T02691066  RH  010%=      5-min Rain = 0
KSM1 210635Z 24012KT 27/M07 A2981 RMK A01 T02681066  RH  011%=      5-min Rain = 0
KSM1 210640Z 24010KT 27/M07 A2981 RMK A01 T02651065  RH  011%=      5-min Rain = 0
KSM1 210645Z 23009KT 27/M07 A2981 RMK A01 T02651066  RH  011%=      5-min Rain = 0
KSM1 210650Z 22009KT 27/M06 A2981 RMK A01 T02651064  RH  011%=      5-min Rain = 0
KSM1 210655Z 17011KT 25/M05 A2982 RMK A01 T02521054  RH  013%=      5-min Rain = 0
KSM1 210700Z 20011KT 24/M06 A2982 RMK A01 T02441063  RH  013%=      5-min Rain = 0
KSM1 210705Z 17012KT 25/M06 A2982 RMK A01 T02521058  RH  012%=      5-min Rain = 0
KSM1 210710Z 17010KT 24/M06 A2982 RMK A01 T02411056  RH  013%=      5-min Rain = 0
KSM1 210715Z 18011KT 24/M04 A2982 RMK A01 T02391037  RH  016%=      5-min Rain = 0
KSM1 210720Z 18011KT 24/M00 A2982 RMK A01 T02401003  RH  020%=      5-min Rain = 0
KSM1 210725Z 19011KT 24/04 A2982 RMK A01 T02400035  RH  027%=      5-min Rain = 0
KSM1 210730Z 19011KT 24/06 A2982 RMK A01 T02400058  RH  032%=      5-min Rain = 0
KSM1 210735Z 18011KT 24/07 A2982 RMK A01 T02390073  RH  035%=      5-min Rain = 0
KSM1 210740Z 18011KT 24/09 A2982 RMK A01 T02380089  RH  040%=      5-min Rain = 0
KSM1 210745Z 18011KT 24/11 A2982 RMK A01 T02380105  RH  045%=      5-min Rain = 0
KSM1 210750Z 19011G16KT 24/12 A2982 RMK A01 T02380117  RH  048%=      5-min Rain = 0
KSM1 210755Z 19010KT 24/12 A2982 RMK A01 T02370122  RH  050%=      5-min Rain = 0
KSM1 210800Z 19011KT 24/13 A2981 RMK A01 T02370127  RH  052%=      5-min Rain = 0
KSM1 210805Z 19012KT 24/13 A2982 RMK A01 T02370131  RH  053%=      5-min Rain = 0
KSM1 210810Z 19010G15KT 24/13 A2981 RMK A01 T02360133  RH  055%=      5-min Rain = 0
KSM1 210815Z 19011KT 24/14 A2981 RMK A01 T02350135  RH  056%=      5-min Rain = 0
KSM1 210820Z 19012KT 24/14 A2981 RMK A01 T02350137  RH  056%=      5-min Rain = 0
KSM1 210825Z 18011KT 23/14 A2981 RMK A01 T02340138  RH  057%=      5-min Rain = 0
KSM1 210830Z 18011KT 23/14 A2981 RMK A01 T02340139  RH  057%=      5-min Rain = 0
KSM1 210835Z 18011KT 23/14 A2981 RMK A01 T02330139  RH  058%=      5-min Rain = 0
KSM1 210840Z 18013KT 23/14 A2981 RMK A01 T02340140  RH  058%=      5-min Rain = 0
KSM1 210845Z 18012KT 23/14 A2981 RMK A01 T02340140  RH  058%=      5-min Rain = 0
KSM1 210850Z 18012G17KT 23/14 A2981 RMK A01 T02330140  RH  058%=      5-min Rain = 0
KSM1 210855Z 18012KT 23/14 A2981 RMK A01 T02330141  RH  059%=      5-min Rain = 0
KSM1 210900Z 19011KT 23/14 A2981 RMK A01 T02320141  RH  059%=      5-min Rain = 0
KSM1 210905Z 19011KT 23/14 A2981 RMK A01 T02310140  RH  059%=      5-min Rain = 0
KSM1 210910Z 19011G16KT 23/14 A2981 RMK A01 T02300140  RH  059%=      5-min Rain = 0
KSM1 210915Z 19012KT 23/14 A2981 RMK A01 T02290140  RH  060%=      5-min Rain = 0
KSM1 210920Z 19012KT 23/14 A2981 RMK A01 T02290140  RH  060%=      5-min Rain = 0
KSM1 210925Z 19012KT 23/14 A2981 RMK A01 T02280140  RH  060%=      5-min Rain = 0
KSM1 210930Z 19012KT 23/14 A2981 RMK A01 T02280140  RH  060%=      5-min Rain = 0
KSM1 210935Z 19012KT 23/14 A2982 RMK A01 T02280140  RH  060%=      5-min Rain = 0
KSM1 210940Z 19012KT 23/14 A2982 RMK A01 T02270141  RH  061%=      5-min Rain = 0
KSM1 210945Z 19011KT 23/14 A2982 RMK A01 T02260141  RH  061%=      5-min Rain = 0
KSM1 210950Z 19011KT 23/14 A2982 RMK A01 T02260141  RH  061%=      5-min Rain = 0
KSM1 210955Z 19011KT 23/14 A2982 RMK A01 T02260141  RH  061%=      5-min Rain = 0
KSM1 211000Z 19010KT 23/14 A2982 RMK A01 T02250141  RH  062%=      5-min Rain = 0
KSM1 211005Z 19010KT 23/14 A2983 RMK A01 T02250142  RH  062%=      5-min Rain = 0
KSM1 211010Z 19011KT 22/14 A2983 RMK A01 T02240142  RH  062%=      5-min Rain = 0
KSM1 211015Z 19011KT 23/14 A2983 RMK A01 T02250142  RH  062%=      5-min Rain = 0
KSM1 211020Z 19010KT 23/14 A2983 RMK A01 T02250142  RH  062%=      5-min Rain = 0
KSM1 211025Z 20010KT 22/14 A2984 RMK A01 T02240142  RH  062%=      5-min Rain = 0
KSM1 211030Z 19010KT 22/14 A2983 RMK A01 T02220142  RH  063%=      5-min Rain = 0
KSM1 211035Z 20011KT 22/14 A2984 RMK A01 T02220142  RH  063%=      5-min Rain = 0
KSM1 211040Z 20010KT 22/14 A2984 RMK A01 T02240141  RH  062%=      5-min Rain = 0
KSM1 211045Z 19010KT 22/14 A2984 RMK A01 T02230141  RH  063%=      5-min Rain = 0
KSM1 211050Z 20009KT 22/14 A2984 RMK A01 T02210141  RH  063%=      5-min Rain = 0
KSM1 211055Z 22006KT 22/14 A2984 RMK A01 T02180140  RH  064%=      5-min Rain = 0
KSM1 211100Z 20007G13KT 21/14 A2984 RMK A01 T02120138  RH  065%=      5-min Rain = 0
KSM1 211105Z 20008KT 21/14 A2984 RMK A01 T02130139  RH  065%=      5-min Rain = 0
KSM1 211110Z 21009KT 21/14 A2985 RMK A01 T02130138  RH  065%=      5-min Rain = 0
KSM1 211115Z 21008KT 21/14 A2985 RMK A01 T02130138  RH  065%=      5-min Rain = 0
KSM1 211120Z 21007KT 21/14 A2985 RMK A01 T02130137  RH  064%=      5-min Rain = 0
KSM1 211125Z 22006KT 21/14 A2985 RMK A01 T02120136  RH  065%=      5-min Rain = 0
KSM1 211130Z 21007KT 21/14 A2985 RMK A01 T02080136  RH  066%=      5-min Rain = 0
KSM1 211135Z 21008KT 21/14 A2985 RMK A01 T02090136  RH  066%=      5-min Rain = 0
KSM1 211140Z 22007KT 21/14 A2986 RMK A01 T02090135  RH  065%=      5-min Rain = 0
KSM1 211145Z 22006KT 21/13 A2986 RMK A01 T02060134  RH  066%=      5-min Rain = 0
KSM1 211150Z 22006KT 20/13 A2986 RMK A01 T02040133  RH  066%=      5-min Rain = 0
KSM1 211155Z 23006KT 20/13 A2986 RMK A01 T02040131  RH  066%=      5-min Rain = 0
KSM1 211200Z 24006KT 20/13 A2986 RMK A01 T02020130  RH  066%=      5-min Rain = 0
KSM1 211205Z 23005KT 20/13 A2986 RMK A01 T01990130  RH  067%=      5-min Rain = 0
KSM1 211210Z 23004KT 20/13 A2986 RMK A01 T01990130  RH  067%=      5-min Rain = 0
KSM1 211215Z 23005KT 20/13 A2986 RMK A01 T01980129  RH  067%=      5-min Rain = 0
KSM1 211220Z 23006KT 20/13 A2987 RMK A01 T01960128  RH  068%=      5-min Rain = 0
KSM1 211225Z 23006KT 20/13 A2987 RMK A01 T01970129  RH  067%=      5-min Rain = 0
KSM1 211230Z 23005KT 20/13 A2987 RMK A01 T02000130  RH  066%=      5-min Rain = 0
KSM1 211235Z 23006G11KT 20/13 A2987 RMK A01 T02040130  RH  065%=      5-min Rain = 0
KSM1 211240Z 23007KT 21/13 A2987 RMK A01 T02100132  RH  064%=      5-min Rain = 0
KSM1 211245Z 23006KT 22/13 A2987 RMK A01 T02160132  RH  061%=      5-min Rain = 0
KSM1 211250Z 23007KT 22/13 A2987 RMK A01 T02190133  RH  061%=      5-min Rain = 0
KSM1 211255Z 22007KT 22/13 A2987 RMK A01 T02220133  RH  060%=      5-min Rain = 0
KSM1 211300Z 21009KT 23/13 A2987 RMK A01 T02260132  RH  058%=      5-min Rain = 0
KSM1 211305Z 21009KT 23/13 A2987 RMK A01 T02290132  RH  057%=      5-min Rain = 0
KSM1 211310Z 21007KT 23/13 A2988 RMK A01 T02310133  RH  056%=      5-min Rain = 0
KSM1 211315Z 21007KT 23/13 A2988 RMK A01 T02340133  RH  055%=      5-min Rain = 0
KSM1 211320Z 21009KT 24/13 A2988 RMK A01 T02370132  RH  054%=      5-min Rain = 0
KSM1 211325Z 20009KT 24/13 A2988 RMK A01 T02390133  RH  054%=      5-min Rain = 0
KSM1 211330Z 21009KT 24/13 A2988 RMK A01 T02410133  RH  053%=      5-min Rain = 0
KSM1 211335Z 21009KT 24/13 A2988 RMK A01 T02440134  RH  052%=      5-min Rain = 0
KSM1 211340Z 20009KT 25/14 A2988 RMK A01 T02490135  RH  051%=      5-min Rain = 0
KSM1 211345Z 21009KT 25/13 A2988 RMK A01 T02530134  RH  050%=      5-min Rain = 0
KSM1 211350Z 21009KT 26/13 A2988 RMK A01 T02560134  RH  049%=      5-min Rain = 0
KSM1 211355Z 21009G14KT 26/13 A2988 RMK A01 T02590132  RH  047%=      5-min Rain = 0
KSM1 211400Z 21009KT 26/13 A2988 RMK A01 T02640131  RH  046%=      5-min Rain = 0
KSM1 211405Z 21011KT 27/13 A2989 RMK A01 T02680128  RH  044%=      5-min Rain = 0
KSM1 211410Z 21009KT 27/13 A2989 RMK A01 T02700129  RH  043%=      5-min Rain = 0
KSM1 211415Z 21009G14KT 28/13 A2989 RMK A01 T02750129  RH  042%=      5-min Rain = 0
KSM1 211420Z 21009G14KT 28/13 A2989 RMK A01 T02780131  RH  042%=      5-min Rain = 0
KSM1 211425Z 21011KT 28/13 A2989 RMK A01 T02810129  RH  041%=      5-min Rain = 0
KSM1 211430Z 21010KT 29/13 A2989 RMK A01 T02850127  RH  039%=      5-min Rain = 0
KSM1 211435Z 21010KT 29/13 A2989 RMK A01 T02890125  RH  038%=      5-min Rain = 0
KSM1 211440Z 21008KT 29/12 A2989 RMK A01 T02930122  RH  036%=      5-min Rain = 0
KSM1 211445Z 21008KT 30/12 A2989 RMK A01 T02970123  RH  036%=      5-min Rain = 0
KSM1 211450Z 21009KT 30/11 A2989 RMK A01 T03000114  RH  033%=      5-min Rain = 0
KSM1 211455Z 22008G15KT 30/11 A2989 RMK A01 T03040110  RH  031%=      5-min Rain = 0
KSM1 211500Z 23011KT 31/10 A2989 RMK A01 T03050102  RH  029%=      5-min Rain = 0
KSM1 211505Z 21011KT 31/10 A2989 RMK A01 T03070098  RH  028%=      5-min Rain = 0
KSM1 211510Z 21011KT 31/09 A2989 RMK A01 T03100091  RH  027%=      5-min Rain = 0
KSM1 211515Z 21010KT 31/09 A2989 RMK A01 T03130090  RH  026%=      5-min Rain = 0
KSM1 211520Z 21010KT 32/09 A2989 RMK A01 T03160086  RH  025%=      5-min Rain = 0
KSM1 211525Z 21009G14KT 32/08 A2989 RMK A01 T03180082  RH  024%=      5-min Rain = 0
KSM1 211530Z 22008KT 32/09 A2989 RMK A01 T03210086  RH  024%=      5-min Rain = 0
KSM1 211535Z 23009KT 32/06 A2989 RMK A01 T03220064  RH  020%=      5-min Rain = 0
KSM1 211540Z 22009KT 32/06 A2989 RMK A01 T03240062  RH  020%=      5-min Rain = 0
KSM1 211545Z 22008KT 33/06 A2989 RMK A01 T03280056  RH  019%=      5-min Rain = 0
KSM1 211550Z 22008G13KT 33/06 A2989 RMK A01 T03300060  RH  019%=      5-min Rain = 0
KSM1 211555Z 23009KT 33/04 A2989 RMK A01 T03310043  RH  017%=      5-min Rain = 0
KSM1 211600Z 23009G14KT 33/02 A2989 RMK A01 T03320024  RH  015%=      5-min Rain = 0
KSM1 211605Z 24007KT 34/04 A2989 RMK A01 T03360035  RH  015%=      5-min Rain = 0
KSM1 211610Z 24009KT 34/02 A2989 RMK A01 T03370021  RH  014%=      5-min Rain = 0
KSM1 211615Z 24008KT 34/02 A2989 RMK A01 T03400019  RH  013%=      5-min Rain = 0
KSM1 211620Z 23007KT 34/03 A2989 RMK A01 T03410026  RH  014%=      5-min Rain = 0
KSM1 211625Z 25008KT 34/02 A2988 RMK A01 T03410017  RH  013%=      5-min Rain = 0
KSM1 211630Z 24009G14KT 34/01 A2988 RMK A01 T03420010  RH  012%=      5-min Rain = 0
KSM1 211635Z 24007KT 34/02 A2988 RMK A01 T03440015  RH  013%=      5-min Rain = 0
KSM1 211640Z 26008KT 35/M00 A2988 RMK A01 T03451002  RH  011%=      5-min Rain = 0
KSM1 211645Z 24007KT 35/00 A2988 RMK A01 T034700-0  RH  011%=      5-min Rain = 0
KSM1 211650Z 26006KT 35/M01 A2988 RMK A01 T03491008  RH  010%=      5-min Rain = 0
KSM1 211655Z 27005KT 35/M02 A2988 RMK A01 T03521016  RH  010%=      5-min Rain = 0
KSM1 211700Z 26004KT 35/M01 A2988 RMK A01 T03541010  RH  010%=      5-min Rain = 0
KSM1 211705Z 27007KT 35/M01 A2988 RMK A01 T03541014  RH  010%=      5-min Rain = 0
KSM1 211710Z 26004G9KT 35/M01 A2988 RMK A01 T03531013  RH  010%=      5-min Rain = 0
KSM1 211715Z 27007KT 36/M01 A2988 RMK A01 T03551010  RH  010%=      5-min Rain = 0
KSM1 211720Z 25007G12KT 36/M02 A2988 RMK A01 T03551017  RH  009%=      5-min Rain = 0
KSM1 211725Z 27006KT 36/M01 A2988 RMK A01 T03561013  RH  010%=      5-min Rain = 0
KSM1 211730Z 27003G9KT 36/M01 A2988 RMK A01 T03571014  RH  010%=      5-min Rain = 0
KSM1 211735Z 30003KT 36/M01 A2987 RMK A01 T03561010  RH  010%=      5-min Rain = 0
KSM1 211740Z 33005KT 36/M01 A2987 RMK A01 T03571007  RH  010%=      5-min Rain = 0
KSM1 211745Z 27005G10KT 36/M01 A2987 RMK A01 T03591012  RH  010%=      5-min Rain = 0
KSM1 211750Z 25005G12KT 36/M01 A2987 RMK A01 T03591012  RH  010%=      5-min Rain = 0
KSM1 211755Z 24004G9KT 36/M01 A2987 RMK A01 T03591014  RH  009%=      5-min Rain = 0
KSM1 211800Z 24007G13KT 36/M01 A2987 RMK A01 T03621007  RH  010%=      5-min Rain = 0
KSM1 211805Z 26005KT 36/M01 A2987 RMK A01 T03631009  RH  010%=      5-min Rain = 0
KSM1 211810Z 27003KT 36/M01 A2987 RMK A01 T03631013  RH  009%=      5-min Rain = 0
KSM1 211815Z 26009G14KT 36/M01 A2987 RMK A01 T03641013  RH  009%=      5-min Rain = 0
KSM1 211820Z 29006G12KT 36/M02 A2986 RMK A01 T03641015  RH  009%=      5-min Rain = 0
KSM1 211825Z 27008KT 36/M02 A2986 RMK A01 T03641016  RH  009%=      5-min Rain = 0
KSM1 211830Z 27006KT 36/M02 A2986 RMK A01 T03631017  RH  009%=      5-min Rain = 0
KSM1 211835Z 27003KT 36/M02 A2986 RMK A01 T03621017  RH  009%=      5-min Rain = 0
KSM1 211840Z 24006KT 36/M01 A2986 RMK A01 T03641014  RH  009%=      5-min Rain = 0
KSM1 211845Z 26007KT 37/M01 A2986 RMK A01 T03661011  RH  009%=      5-min Rain = 0
KSM1 211850Z 18006G11KT 37/M00 A2986 RMK A01 T03711004  RH  010%=      5-min Rain = 0
KSM1 211855Z 19006KT 37/M00 A2985 RMK A01 T03741003  RH  009%=      5-min Rain = 0
KSM1 211900Z 22009KT 38/M00 A2985 RMK A01 T03751004  RH  009%=      5-min Rain = 0
KSM1 211905Z 22006G11KT 37/M00 A2985 RMK A01 T03741003  RH  009%=      5-min Rain = 0
KSM1 211910Z 20007KT 37/M00 A2985 RMK A01 T03731003  RH  009%=      5-min Rain = 0
KSM1 211915Z 21006KT 37/M01 A2985 RMK A01 T03711007  RH  009%=      5-min Rain = 0
KSM1 211920Z 27007KT 38/M01 A2984 RMK A01 T03751008  RH  009%=      5-min Rain = 0
KSM1 211925Z 25006KT 38/M01 A2984 RMK A01 T03761006  RH  009%=      5-min Rain = 0
KSM1 211930Z 22004G9KT 38/M01 A2984 RMK A01 T03751011  RH  009%=      5-min Rain = 0
KSM1 211935Z 20005KT 38/M01 A2984 RMK A01 T03751009  RH  009%=      5-min Rain = 0
KSM1 211940Z 24008G13KT 38/M00 A2983 RMK A01 T03761001  RH  009%=      5-min Rain = 0
KSM1 211945Z 22010G18KT 38/M00 A2983 RMK A01 T03771001  RH  009%=      5-min Rain = 0
KSM1 211950Z 21008G16KT 38/M01 A2983 RMK A01 T03771005  RH  009%=      5-min Rain = 0
KSM1 211955Z 21005KT 38/00 A2983 RMK A01 T03760001  RH  010%=      5-min Rain = 0
KSM1 212000Z 19007KT 38/01 A2983 RMK A01 T03820005  RH  010%=      5-min Rain = 0
KSM1 212005Z 24007KT 38/00 A2983 RMK A01 T038200-0  RH  009%=      5-min Rain = 0
KSM1 212010Z 20007G13KT 38/00 A2982 RMK A01 T03800002  RH  009%=      5-min Rain = 0
KSM1 212015Z 22006G11KT 38/M00 A2982 RMK A01 T03811001  RH  009%=      5-min Rain = 0
KSM1 212020Z 21008KT 38/00 A2982 RMK A01 T03800003  RH  010%=      5-min Rain = 0
KSM1 212025Z 19009G17KT 38/00 A2982 RMK A01 T03820004  RH  010%=      5-min Rain = 0
KSM1 212030Z 18014KT 38/00 A2982 RMK A01 T03840002  RH  009%=      5-min Rain = 0
KSM1 212035Z 23010G15KT 38/01 A2982 RMK A01 T03820005  RH  010%=      5-min Rain = 0
KSM1 212040Z 28006KT 38/M00 A2982 RMK A01 T03821002  RH  009%=      5-min Rain = 0
KSM1 212045Z 17007KT 38/00 A2981 RMK A01 T03820004  RH  010%=      5-min Rain = 0
KSM1 212050Z 21007KT 38/00 A2982 RMK A01 T03820001  RH  009%=      5-min Rain = 0
KSM1 212055Z 18005G10KT 38/M00 A2981 RMK A01 T03821001  RH  009%=      5-min Rain = 0
KSM1 212100Z 21005KT 39/01 A2981 RMK A01 T03850006  RH  010%=      5-min Rain = 0
KSM1 212105Z 23005G11KT 39/01 A2981 RMK A01 T03870006  RH  009%=      5-min Rain = 0
KSM1 212110Z 21008G25KT 39/01 A298 RMK A01 T03890006  RH  009%=      5-min Rain = 0
KSM1 212115Z 20014G19KT 39/00 A298 RMK A01 T03880004  RH  009%=      5-min Rain = 0
KSM1 212120Z 19014G23KT 39/01 A298 RMK A01 T03910007  RH  009%=      5-min Rain = 0
KSM1 212125Z 20014G20KT 39/00 A298 RMK A01 T03900003  RH  009%=      5-min Rain = 0
KSM1 212130Z 21011G18KT 39/00 A298 RMK A01 T03850002  RH  009%=      5-min Rain = 0
KSM1 212135Z 20008G13KT 38/00 A298 RMK A01 T03840003  RH  009%=      5-min Rain = 0
KSM1 212140Z 18011G18KT 39/01 A2979 RMK A01 T03870009  RH  010%=      5-min Rain = 0
KSM1 212145Z 18012G25KT 39/01 A2979 RMK A01 T03880010  RH  010%=      5-min Rain = 0
KSM1 212150Z 18017G25KT 39/01 A2979 RMK A01 T03880006  RH  009%=      5-min Rain = 0
KSM1 212155Z 18013G18KT 39/01 A2979 RMK A01 T03880008  RH  009%=      5-min Rain = 0
KSM1 212200Z 19013G18KT 39/01 A2979 RMK A01 T03870008  RH  010%=      5-min Rain = 0
KSM1 212205Z 20011G16KT 39/01 A2979 RMK A01 T03900012  RH  010%=      5-min Rain = 0
KSM1 212210Z 20011G17KT 39/01 A2978 RMK A01 T03880011  RH  010%=      5-min Rain = 0
KSM1 212215Z 19015G24KT 39/01 A2978 RMK A01 T03890010  RH  010%=      5-min Rain = 0
KSM1 212220Z 19014G24KT 39/01 A2978 RMK A01 T03870009  RH  010%=      5-min Rain = 0
KSM1 212225Z 18017G23KT 39/01 A2978 RMK A01 T03860007  RH  010%=      5-min Rain = 0
KSM1 212230Z 19014G19KT 39/01 A2978 RMK A01 T03850009  RH  010%=      5-min Rain = 0
KSM1 212235Z 21013G19KT 38/01 A2978 RMK A01 T03830007  RH  010%=      5-min Rain = 0
KSM1 212240Z 22012G19KT 38/01 A2978 RMK A01 T03820008  RH  010%=      5-min Rain = 0
KSM1 212245Z 20017G22KT 38/00 A2978 RMK A01 T03820004  RH  010%=      5-min Rain = 0
KSM1 212250Z 20014G19KT 38/01 A2978 RMK A01 T03810005  RH  010%=      5-min Rain = 0
KSM1 212255Z 19013G20KT 38/01 A2977 RMK A01 T03820008  RH  010%=      5-min Rain = 0
KSM1 212300Z 20013G19KT 38/01 A2977 RMK A01 T03820007  RH  010%=      5-min Rain = 0
KSM1 212305Z 19017G24KT 38/01 A2977 RMK A01 T03810006  RH  010%=      5-min Rain = 0
KSM1 212310Z 19016G23KT 38/01 A2977 RMK A01 T03800005  RH  010%=      5-min Rain = 0
KSM1 212315Z 22010KT 38/01 A2977 RMK A01 T03790008  RH  010%=      5-min Rain = 0
KSM1 212320Z 20014G19KT 38/01 A2976 RMK A01 T03790007  RH  010%=      5-min Rain = 0
KSM1 212325Z 21013G21KT 38/01 A2976 RMK A01 T03780005  RH  010%=      5-min Rain = 0
KSM1 212330Z 20013KT 38/01 A2976 RMK A01 T03770007  RH  010%=      5-min Rain = 0
KSM1 212335Z 22012G17KT 38/01 A2976 RMK A01 T03770007  RH  010%=      5-min Rain = 0
KSM1 212340Z 21011KT 38/01 A2976 RMK A01 T03770007  RH  010%=      5-min Rain = 0
KSM1 212345Z 20012KT 38/01 A2976 RMK A01 T03750006  RH  010%=      5-min Rain = 0
KSM1 212350Z 20011G16KT 38/01 A2976 RMK A01 T03750007  RH  010%=      5-min Rain = 0
KSM1 212355Z 20012KT 38/01 A2976 RMK A01 T03760009  RH  010%=      5-min Rain = 0
KSM1 220000Z 20015G20KT 38/01 A2976 RMK A01 T03760008  RH  010%=      5-min Rain = 0
KSM1 220005Z 21013KT 38/01 A2976 RMK A01 T03750007  RH  010%=      5-min Rain = 0
KSM1 220010Z 21015G22KT 37/01 A2976 RMK A01 T03730006  RH  010%=      5-min Rain = 0
KSM1 220015Z 23011KT 37/01 A2976 RMK A01 T03720012  RH  011%=      5-min Rain = 0
KSM1 220020Z 22012G19KT 37/01 A2976 RMK A01 T03720013  RH  011%=      5-min Rain = 0
KSM1 220025Z 23011KT 37/01 A2976 RMK A01 T03710012  RH  011%=      5-min Rain = 0
KSM1 220030Z 21009G14KT 37/01 A2976 RMK A01 T03700013  RH  011%=      5-min Rain = 0
KSM1 220035Z 22008KT 37/02 A2976 RMK A01 T03690015  RH  011%=      5-min Rain = 0
KSM1 220040Z 23012G19KT 37/01 A2976 RMK A01 T03680010  RH  011%=      5-min Rain = 0
KSM1 220045Z 23009KT 37/01 A2976 RMK A01 T03660009  RH  011%=      5-min Rain = 0
KSM1 220050Z 23009G14KT 37/01 A2976 RMK A01 T03650011  RH  011%=      5-min Rain = 0
KSM1 220055Z 22008KT 36/01 A2976 RMK A01 T03620014  RH  011%=      5-min Rain = 0
KSM1 220100Z 22009KT 36/01 A2976 RMK A01 T03610012  RH  011%=      5-min Rain = 0
KSM1 220105Z 22008KT 36/01 A2976 RMK A01 T03600011  RH  011%=      5-min Rain = 0
KSM1 220110Z 22007KT 36/01 A2975 RMK A01 T03580014  RH  012%=      5-min Rain = 0
KSM1 220115Z 23005KT 36/02 A2975 RMK A01 T03550015  RH  012%=      5-min Rain = 0
KSM1 220120Z 23006KT 35/02 A2975 RMK A01 T03520018  RH  012%=      5-min Rain = 0
KSM1 220125Z 23006KT 35/02 A2975 RMK A01 T03480018  RH  013%=      5-min Rain = 0
KSM1 220130Z 22006KT 34/02 A2975 RMK A01 T03440019  RH  013%=      5-min Rain = 0
KSM1 220135Z 21007KT 34/01 A2976 RMK A01 T03440012  RH  012%=      5-min Rain = 0
KSM1 220140Z 20008KT 35/01 A2976 RMK A01 T03450013  RH  012%=      5-min Rain = 0
KSM1 220145Z 19008KT 34/01 A2977 RMK A01 T03410012  RH  013%=      5-min Rain = 0
KSM1 220150Z 19008KT 34/01 A2978 RMK A01 T03400012  RH  013%=      5-min Rain = 0
KSM1 220155Z 18007KT 34/02 A2979 RMK A01 T03360015  RH  013%=      5-min Rain = 0
KSM1 220200Z 17006KT 33/02 A2979 RMK A01 T03320019  RH  014%=      5-min Rain = 0
KSM1 220205Z 15010G16KT 33/03 A298 RMK A01 T03260029  RH  016%=      5-min Rain = 0
KSM1 220210Z 16015G21KT 33/08 A298 RMK A01 T03250084  RH  023%=      5-min Rain = 0
KSM1 220215Z 16017G23KT 32/12 A2981 RMK A01 T03240115  RH  029%=      5-min Rain = 0
KSM1 220220Z 17022G32KT 32/11 A2981 RMK A01 T03240110  RH  028%=      5-min Rain = 0
KSM1 220225Z 17022G31KT 32/09 A2981 RMK A01 T03220091  RH  025%=      5-min Rain = 0
KSM1 220230Z 17018G26KT 32/09 A2982 RMK A01 T03190086  RH  024%=      5-min Rain = 0
KSM1 220235Z 17021G27KT 31/09 A2982 RMK A01 T03140090  RH  026%=      5-min Rain = 0
KSM1 220240Z 16018G23KT 31/09 A2982 RMK A01 T03060093  RH  027%=      5-min Rain = 0
KSM1 220245Z 16017KT 30/09 A2982 RMK A01 T03020092  RH  028%=      5-min Rain = 0
KSM1 220250Z 16017G22KT 30/10 A2983 RMK A01 T03000096  RH  029%=      5-min Rain = 0
KSM1 220255Z 15016KT 30/10 A2983 RMK A01 T02960104  RH  031%=      5-min Rain = 0
KSM1 220300Z 15013KT 29/11 A2983 RMK A01 T02930108  RH  033%=      5-min Rain = 0
KSM1 220305Z 14011KT 29/11 A2983 RMK A01 T02900108  RH  033%=      5-min Rain = 0
KSM1 220310Z 14010KT 29/11 A2984 RMK A01 T02870111  RH  035%=      5-min Rain = 0
KSM1 220315Z 14010KT 28/12 A2984 RMK A01 T02840115  RH  036%=      5-min Rain = 0
KSM1 220320Z 14009KT 28/12 A2985 RMK A01 T02830120  RH  038%=      5-min Rain = 0
KSM1 220325Z 15011KT 28/13 A2985 RMK A01 T02830132  RH  041%=      5-min Rain = 0
KSM1 220330Z 16010G16KT 28/14 A2985 RMK A01 T02830143  RH  044%=      5-min Rain = 0
KSM1 220335Z 17016KT 29/15 A2985 RMK A01 T02870153  RH  046%=      5-min Rain = 0
KSM1 220340Z 17017G22KT 29/16 A2985 RMK A01 T02900158  RH  047%=      5-min Rain = 0
KSM1 220345Z 18018G23KT 29/16 A2985 RMK A01 T02900162  RH  048%=      5-min Rain = 0
KSM1 220350Z 17019G26KT 29/17 A2985 RMK A01 T02900165  RH  049%=      5-min Rain = 0
KSM1 220355Z 18019G24KT 29/17 A2985 RMK A01 T02900169  RH  050%=      5-min Rain = 0
KSM1 220400Z 18016KT 29/17 A2985 RMK A01 T02890170  RH  051%=      5-min Rain = 0
KSM1 220405Z 18014G20KT 29/17 A2985 RMK A01 T02870170  RH  052%=      5-min Rain = 0
KSM1 220410Z 18014KT 29/17 A2985 RMK A01 T02850168  RH  052%=      5-min Rain = 0
KSM1 220415Z 17016G22KT 28/16 A2985 RMK A01 T02820161  RH  050%=      5-min Rain = 0
KSM1 220420Z 17015KT 28/15 A2985 RMK A01 T02800151  RH  047%=      5-min Rain = 0
KSM1 220425Z 17013KT 28/15 A2985 RMK A01 T02770146  RH  047%=      5-min Rain = 0
KSM1 220430Z 17012KT 28/14 A2985 RMK A01 T02750144  RH  047%=      5-min Rain = 0
KSM1 220435Z 17010KT 27/14 A2985 RMK A01 T02730142  RH  047%=      5-min Rain = 0
KSM1 220440Z 17009KT 27/14 A2984 RMK A01 T02710140  RH  046%=      5-min Rain = 0
KSM1 220445Z 17010KT 27/14 A2985 RMK A01 T02700135  RH  045%=      5-min Rain = 0
KSM1 220450Z 17009KT 27/13 A2985 RMK A01 T02700133  RH  044%=      5-min Rain = 0
KSM1 220455Z 18009KT 27/13 A2986 RMK A01 T02690133  RH  045%=      5-min Rain = 0

Page generated in 0.0092 seconds.